sensor_id;sensor_type;location;lat;lon;timestamp;pressure;altitude;pressure_sealevel;temperature;humidity
53270;BME280;39159;45.634;9.420;2024-02-16T00:01:33;99419.41;;;7.69;100.00
53270;BME280;39159;45.634;9.420;2024-02-16T00:03:58;99417.25;;;7.66;100.00
53270;BME280;39159;45.634;9.420;2024-02-16T00:06:23;99416.44;;;7.65;100.00
53270;BME280;39159;45.634;9.420;2024-02-16T00:08:48;99417.78;;;7.68;100.00
53270;BME280;39159;45.634;9.420;2024-02-16T00:11:13;99417.22;;;7.71;100.00
53270;BME280;39159;45.634;9.420;2024-02-16T00:13:39;99415.59;;;7.70;100.00
53270;BME280;39159;45.634;9.420;2024-02-16T00:16:04;99413.97;;;7.69;100.00
53270;BME280;39159;45.634;9.420;2024-02-16T00:18:29;99413.44;;;7.72;100.00
53270;BME280;39159;45.634;9.420;2024-02-16T00:20:54;99410.72;;;7.72;100.00
53270;BME280;39159;45.634;9.420;2024-02-16T00:23:20;99417.22;;;7.76;100.00
53270;BME280;39159;45.634;9.420;2024-02-16T00:25:47;99417.75;;;7.78;100.00
53270;BME280;39159;45.634;9.420;2024-02-16T00:28:12;99415.03;;;7.78;100.00
53270;BME280;39159;45.634;9.420;2024-02-16T00:30:38;99415.56;;;7.80;100.00
53270;BME280;39159;45.634;9.420;2024-02-16T00:33:03;99415.28;;;7.82;100.00
53270;BME280;39159;45.634;9.420;2024-02-16T00:35:29;99410.94;;;7.81;100.00
53270;BME280;39159;45.634;9.420;2024-02-16T00:37:58;99419.38;;;7.79;100.00
53270;BME280;39159;45.634;9.420;2024-02-16T00:40:23;99407.44;;;7.75;100.00
53270;BME280;39159;45.634;9.420;2024-02-16T00:42:48;99413.69;;;7.71;100.00
53270;BME280;39159;45.634;9.420;2024-02-16T00:45:14;99407.19;;;7.66;100.00
53270;BME280;39159;45.634;9.420;2024-02-16T00:47:39;99408.56;;;7.64;100.00
53270;BME280;39159;45.634;9.420;2024-02-16T00:50:04;99416.16;;;7.62;100.00
53270;BME280;39159;45.634;9.420;2024-02-16T00:52:33;99406.13;;;7.57;100.00
53270;BME280;39159;45.634;9.420;2024-02-16T00:54:58;99418.38;;;7.55;100.00
53270;BME280;39159;45.634;9.420;2024-02-16T00:57:26;99410.78;;;7.52;100.00
53270;BME280;39159;45.634;9.420;2024-02-16T00:59:51;99416.75;;;7.48;100.00
53270;BME280;39159;45.634;9.420;2024-02-16T01:02:16;99419.47;;;7.48;100.00
53270;BME280;39159;45.634;9.420;2024-02-16T01:04:42;99412.41;;;7.42;100.00
53270;BME280;39159;45.634;9.420;2024-02-16T01:07:07;99417.34;;;7.40;100.00
53270;BME280;39159;45.634;9.420;2024-02-16T01:09:32;99411.38;;;7.38;100.00
53270;BME280;39159;45.634;9.420;2024-02-16T01:11:57;99415.41;;;7.36;100.00
53270;BME280;39159;45.634;9.420;2024-02-16T01:14:22;99409.72;;;7.37;100.00
53270;BME280;39159;45.634;9.420;2024-02-16T01:16:48;99408.66;;;7.38;100.00
53270;BME280;39159;45.634;9.420;2024-02-16T01:19:13;99405.09;;;7.38;100.00
53270;BME280;39159;45.634;9.420;2024-02-16T01:21:38;99408.91;;;7.37;100.00
53270;BME280;39159;45.634;9.420;2024-02-16T01:24:04;99403.22;;;7.33;100.00
53270;BME280;39159;45.634;9.420;2024-02-16T01:26:29;99405.41;;;7.36;100.00
53270;BME280;39159;45.634;9.420;2024-02-16T01:28:54;99398.63;;;7.34;100.00
53270;BME280;39159;45.634;9.420;2024-02-16T01:31:20;99397.53;;;7.30;100.00
53270;BME280;39159;45.634;9.420;2024-02-16T01:33:45;99401.88;;;7.25;100.00
53270;BME280;39159;45.634;9.420;2024-02-16T01:36:10;99395.66;;;7.25;100.00
53270;BME280;39159;45.634;9.420;2024-02-16T01:38:36;99396.72;;;7.24;100.00
53270;BME280;39159;45.634;9.420;2024-02-16T01:41:01;99407.56;;;7.24;100.00
53270;BME280;39159;45.634;9.420;2024-02-16T01:43:27;99408.38;;;7.24;100.00
53270;BME280;39159;45.634;9.420;2024-02-16T01:45:52;99414.38;;;7.21;100.00
53270;BME280;39159;45.634;9.420;2024-02-16T01:48:17;99404.34;;;7.17;100.00
53270;BME280;39159;45.634;9.420;2024-02-16T01:50:43;99407.06;;;7.17;100.00
53270;BME280;39159;45.634;9.420;2024-02-16T01:53:09;99401.34;;;7.13;100.00
53270;BME280;39159;45.634;9.420;2024-02-16T01:55:36;99398.09;;;7.11;100.00
53270;BME280;39159;45.634;9.420;2024-02-16T01:58:01;99391.59;;;7.02;100.00
53270;BME280;39159;45.634;9.420;2024-02-16T02:00:28;99380.47;;;7.03;100.00
53270;BME280;39159;45.634;9.420;2024-02-16T02:02:53;99395.69;;;6.99;100.00
53270;BME280;39159;45.634;9.420;2024-02-16T02:05:18;99379.13;;;6.96;100.00
53270;BME280;39159;45.634;9.420;2024-02-16T02:07:43;99381.56;;;6.97;100.00
53270;BME280;39159;45.634;9.420;2024-02-16T02:10:09;99384.00;;;6.99;100.00
53270;BME280;39159;45.634;9.420;2024-02-16T02:12:37;99379.13;;;6.96;100.00
53270;BME280;39159;45.634;9.420;2024-02-16T02:15:02;99366.66;;;6.95;100.00
53270;BME280;39159;45.634;9.420;2024-02-16T02:17:28;99362.31;;;6.94;100.00
53270;BME280;39159;45.634;9.420;2024-02-16T02:19:53;99361.25;;;6.90;100.00
53270;BME280;39159;45.634;9.420;2024-02-16T02:22:19;99356.88;;;6.89;100.00
53270;BME280;39159;45.634;9.420;2024-02-16T02:24:45;99362.88;;;6.85;100.00
53270;BME280;39159;45.634;9.420;2024-02-16T02:27:11;99361.22;;;6.84;100.00
53270;BME280;39159;45.634;9.420;2024-02-16T02:29:36;99358.50;;;6.84;100.00
53270;BME280;39159;45.634;9.420;2024-02-16T02:32:01;99352.28;;;6.79;100.00
53270;BME280;39159;45.634;9.420;2024-02-16T02:34:27;99357.19;;;6.77;100.00
53270;BME280;39159;45.634;9.420;2024-02-16T02:36:52;99352.03;;;6.75;100.00
53270;BME280;39159;45.634;9.420;2024-02-16T02:39:17;99348.50;;;6.70;100.00
53270;BME280;39159;45.634;9.420;2024-02-16T02:41:42;99343.63;;;6.67;100.00
53270;BME280;39159;45.634;9.420;2024-02-16T02:44:08;99343.91;;;6.70;100.00
53270;BME280;39159;45.634;9.420;2024-02-16T02:46:33;99340.63;;;6.68;100.00
53270;BME280;39159;45.634;9.420;2024-02-16T02:48:58;99349.31;;;6.70;100.00
53270;BME280;39159;45.634;9.420;2024-02-16T02:51:23;99337.94;;;6.68;100.00
53270;BME280;39159;45.634;9.420;2024-02-16T02:53:49;99333.88;;;6.66;100.00
53270;BME280;39159;45.634;9.420;2024-02-16T02:56:14;99334.94;;;6.64;100.00
53270;BME280;39159;45.634;9.420;2024-02-16T02:58:39;99334.13;;;6.64;100.00
53270;BME280;39159;45.634;9.420;2024-02-16T03:01:04;99330.59;;;6.63;100.00
53270;BME280;39159;45.634;9.420;2024-02-16T03:03:32;99324.66;;;6.61;100.00
53270;BME280;39159;45.634;9.420;2024-02-16T03:05:58;99329.25;;;6.61;100.00
53270;BME280;39159;45.634;9.420;2024-02-16T03:08:23;99327.34;;;6.61;100.00
53270;BME280;39159;45.634;9.420;2024-02-16T03:10:49;99323.28;;;6.59;100.00
53270;BME280;39159;45.634;9.420;2024-02-16T03:13:14;99319.22;;;6.56;100.00
53270;BME280;39159;45.634;9.420;2024-02-16T03:15:43;99326.28;;;6.57;100.00
53270;BME280;39159;45.634;9.420;2024-02-16T03:18:08;99326.56;;;6.61;100.00
53270;BME280;39159;45.634;9.420;2024-02-16T03:20:34;99321.66;;;6.63;100.00
53270;BME280;39159;45.634;9.420;2024-02-16T03:22:59;99324.09;;;6.64;100.00
53270;BME280;39159;45.634;9.420;2024-02-16T03:25:24;99317.31;;;6.62;100.00
53270;BME280;39159;45.634;9.420;2024-02-16T03:27:50;99313.50;;;6.58;100.00
53270;BME280;39159;45.634;9.420;2024-02-16T03:30:16;99318.44;;;6.56;100.00
53270;BME280;39159;45.634;9.420;2024-02-16T03:32:41;99316.25;;;6.53;100.00
53270;BME280;39159;45.634;9.420;2024-02-16T03:35:06;99321.13;;;6.51;100.00
53270;BME280;39159;45.634;9.420;2024-02-16T03:37:31;99321.41;;;6.54;100.00
53270;BME280;39159;45.634;9.420;2024-02-16T03:39:57;99326.56;;;6.56;100.00
53270;BME280;39159;45.634;9.420;2024-02-16T03:42:22;99317.34;;;6.52;100.00
53270;BME280;39159;45.634;9.420;2024-02-16T03:44:47;99318.94;;;6.53;100.00
53270;BME280;39159;45.634;9.420;2024-02-16T03:47:13;99324.38;;;6.58;100.00
53270;BME280;39159;45.634;9.420;2024-02-16T03:49:39;99321.66;;;6.58;100.00
53270;BME280;39159;45.634;9.420;2024-02-16T03:52:04;99328.97;;;6.62;100.00
53270;BME280;39159;45.634;9.420;2024-02-16T03:54:29;99322.47;;;6.63;100.00
53270;BME280;39159;45.634;9.420;2024-02-16T03:56:55;99323.53;;;6.62;100.00
53270;BME280;39159;45.634;9.420;2024-02-16T03:59:20;99331.44;;;6.59;100.00
53270;BME280;39159;45.634;9.420;2024-02-16T04:01:45;99325.47;;;6.57;100.00
53270;BME280;39159;45.634;9.420;2024-02-16T04:04:11;99337.13;;;6.57;100.00
53270;BME280;39159;45.634;9.420;2024-02-16T04:06:36;99331.97;;;6.56;100.00
53270;BME280;39159;45.634;9.420;2024-02-16T04:09:02;99334.97;;;6.49;100.00
53270;BME280;39159;45.634;9.420;2024-02-16T04:11:27;99331.97;;;6.46;100.00
53270;BME280;39159;45.634;9.420;2024-02-16T04:13:54;99336.59;;;6.45;100.00
53270;BME280;39159;45.634;9.420;2024-02-16T04:16:19;99338.22;;;6.46;100.00
53270;BME280;39159;45.634;9.420;2024-02-16T04:18:47;99337.94;;;6.48;100.00
53270;BME280;39159;45.634;9.420;2024-02-16T04:21:12;99335.22;;;6.53;100.00
53270;BME280;39159;45.634;9.420;2024-02-16T04:23:37;99334.69;;;6.56;100.00
53270;BME280;39159;45.634;9.420;2024-02-16T04:26:02;99330.59;;;6.53;100.00
53270;BME280;39159;45.634;9.420;2024-02-16T04:28:29;99334.16;;;6.54;100.00
53270;BME280;39159;45.634;9.420;2024-02-16T04:30:54;99325.72;;;6.55;100.00
53270;BME280;39159;45.634;9.420;2024-02-16T04:33:19;99330.34;;;6.55;100.00
53270;BME280;39159;45.634;9.420;2024-02-16T04:35:44;99327.09;;;6.53;100.00
53270;BME280;39159;45.634;9.420;2024-02-16T04:38:13;99327.63;;;6.55;100.00
53270;BME280;39159;45.634;9.420;2024-02-16T04:40:38;99321.13;;;6.56;100.00
53270;BME280;39159;45.634;9.420;2024-02-16T04:43:03;99320.59;;;6.59;100.00
53270;BME280;39159;45.634;9.420;2024-02-16T04:45:29;99313.53;;;6.63;100.00
53270;BME280;39159;45.634;9.420;2024-02-16T04:47:55;99312.16;;;6.66;100.00
53270;BME280;39159;45.634;9.420;2024-02-16T04:50:20;99308.63;;;6.70;100.00
53270;BME280;39159;45.634;9.420;2024-02-16T04:52:45;99307.81;;;6.75;100.00
53270;BME280;39159;45.634;9.420;2024-02-16T04:55:11;99304.00;;;6.81;100.00
53270;BME280;39159;45.634;9.420;2024-02-16T04:57:36;99305.34;;;6.83;100.00
53270;BME280;39159;45.634;9.420;2024-02-16T05:00:02;99312.66;;;6.88;100.00
53270;BME280;39159;45.634;9.420;2024-02-16T05:02:27;99305.06;;;6.90;100.00
53270;BME280;39159;45.634;9.420;2024-02-16T05:04:52;99315.38;;;6.93;100.00
53270;BME280;39159;45.634;9.420;2024-02-16T05:07:18;99309.94;;;6.98;100.00
53270;BME280;39159;45.634;9.420;2024-02-16T05:09:43;99311.28;;;7.01;100.00
53270;BME280;39159;45.634;9.420;2024-02-16T05:12:09;99312.09;;;7.01;100.00
53270;BME280;39159;45.634;9.420;2024-02-16T05:14:35;99305.88;;;7.01;100.00
53270;BME280;39159;45.634;9.420;2024-02-16T05:17:00;99305.84;;;6.96;100.00
53270;BME280;39159;45.634;9.420;2024-02-16T05:19:25;99303.41;;;6.99;100.00
53270;BME280;39159;45.634;9.420;2024-02-16T05:21:51;99298.00;;;6.99;100.00
53270;BME280;39159;45.634;9.420;2024-02-16T05:24:16;99301.25;;;7.01;100.00
53270;BME280;39159;45.634;9.420;2024-02-16T05:26:41;99303.13;;;7.06;100.00
53270;BME280;39159;45.634;9.420;2024-02-16T05:29:06;99306.66;;;7.12;100.00
53270;BME280;39159;45.634;9.420;2024-02-16T05:31:31;99303.63;;;7.13;100.00
53270;BME280;39159;45.634;9.420;2024-02-16T05:33:56;99302.00;;;7.17;100.00
53270;BME280;39159;45.634;9.420;2024-02-16T05:36:22;99294.97;;;7.16;100.00
53270;BME280;39159;45.634;9.420;2024-02-16T05:38:52;99301.75;;;7.19;100.00
53270;BME280;39159;45.634;9.420;2024-02-16T05:41:19;99309.38;;;7.12;100.00
53270;BME280;39159;45.634;9.420;2024-02-16T05:43:45;99302.88;;;6.97;100.00
53270;BME280;39159;45.634;9.420;2024-02-16T05:46:13;99308.84;;;6.89;100.00
53270;BME280;39159;45.634;9.420;2024-02-16T05:48:38;99310.22;;;6.87;100.00
53270;BME280;39159;45.634;9.420;2024-02-16T05:51:05;99300.97;;;6.98;100.00
53270;BME280;39159;45.634;9.420;2024-02-16T05:53:30;99303.44;;;6.84;100.00
53270;BME280;39159;45.634;9.420;2024-02-16T05:55:56;99304.78;;;6.87;100.00
53270;BME280;39159;45.634;9.420;2024-02-16T05:58:21;99307.75;;;6.95;100.00
53270;BME280;39159;45.634;9.420;2024-02-16T06:00:46;99302.59;;;7.04;100.00
53270;BME280;39159;45.634;9.420;2024-02-16T06:03:13;99306.13;;;6.99;100.00
53270;BME280;39159;45.634;9.420;2024-02-16T06:05:38;99305.06;;;6.90;100.00
53270;BME280;39159;45.634;9.420;2024-02-16T06:08:05;99304.28;;;6.90;100.00
53270;BME280;39159;45.634;9.420;2024-02-16T06:10:30;99301.03;;;6.77;100.00
53270;BME280;39159;45.634;9.420;2024-02-16T06:12:56;99308.91;;;6.79;100.00
53270;BME280;39159;45.634;9.420;2024-02-16T06:15:21;99312.44;;;6.74;100.00
53270;BME280;39159;45.634;9.420;2024-02-16T06:17:48;99304.56;;;6.73;100.00
53270;BME280;39159;45.634;9.420;2024-02-16T06:20:13;99315.69;;;6.66;100.00
53270;BME280;39159;45.634;9.420;2024-02-16T06:22:39;99320.03;;;6.62;100.00
53270;BME280;39159;45.634;9.420;2024-02-16T06:25:04;99321.13;;;6.56;100.00
53270;BME280;39159;45.634;9.420;2024-02-16T06:27:30;99317.88;;;6.54;100.00
53270;BME280;39159;45.634;9.420;2024-02-16T06:29:56;99321.94;;;6.51;100.00
53270;BME280;39159;45.634;9.420;2024-02-16T06:32:21;99329.00;;;6.47;100.00
53270;BME280;39159;45.634;9.420;2024-02-16T06:34:46;99327.09;;;6.42;100.00
53270;BME280;39159;45.634;9.420;2024-02-16T06:37:11;99329.53;;;6.44;100.00
53270;BME280;39159;45.634;9.420;2024-02-16T06:39:37;99336.84;;;6.49;100.00
53270;BME280;39159;45.634;9.420;2024-02-16T06:42:02;99336.88;;;6.54;100.00
53270;BME280;39159;45.634;9.420;2024-02-16T06:44:27;99334.13;;;6.59;100.00
53270;BME280;39159;45.634;9.420;2024-02-16T06:46:52;99337.09;;;6.62;100.00
53270;BME280;39159;45.634;9.420;2024-02-16T06:49:17;99336.31;;;6.67;100.00
53270;BME280;39159;45.634;9.420;2024-02-16T06:51:43;99340.63;;;6.78;100.00
53270;BME280;39159;45.634;9.420;2024-02-16T06:54:10;99335.69;;;6.96;100.00
53270;BME280;39159;45.634;9.420;2024-02-16T06:56:35;99336.50;;;7.06;100.00
53270;BME280;39159;45.634;9.420;2024-02-16T06:59:00;99345.75;;;7.00;100.00
53270;BME280;39159;45.634;9.420;2024-02-16T07:01:26;99354.44;;;7.08;100.00
53270;BME280;39159;45.634;9.420;2024-02-16T07:03:52;99348.72;;;7.14;100.00
53270;BME280;39159;45.634;9.420;2024-02-16T07:06:17;99360.34;;;7.20;100.00
53270;BME280;39159;45.634;9.420;2024-02-16T07:08:43;99361.44;;;7.19;100.00
53270;BME280;39159;45.634;9.420;2024-02-16T07:11:09;99371.47;;;7.23;100.00
53270;BME280;39159;45.634;9.420;2024-02-16T07:13:36;99361.19;;;7.15;100.00
53270;BME280;39159;45.634;9.420;2024-02-16T07:16:02;99360.69;;;7.03;100.00
53270;BME280;39159;45.634;9.420;2024-02-16T07:18:29;99367.47;;;6.95;100.00
53270;BME280;39159;45.634;9.420;2024-02-16T07:20:55;99361.50;;;6.88;100.00
53270;BME280;39159;45.634;9.420;2024-02-16T07:23:20;99365.03;;;6.89;100.00
53270;BME280;39159;45.634;9.420;2024-02-16T07:25:45;99370.16;;;6.95;100.00
53270;BME280;39159;45.634;9.420;2024-02-16T07:28:11;99369.66;;;6.98;100.00
53270;BME280;39159;45.634;9.420;2024-02-16T07:30:36;99367.75;;;6.99;100.00
53270;BME280;39159;45.634;9.420;2024-02-16T07:33:04;99369.38;;;7.05;100.00
53270;BME280;39159;45.634;9.420;2024-02-16T07:35:30;99374.25;;;7.03;100.00
53270;BME280;39159;45.634;9.420;2024-02-16T07:37:55;99377.22;;;7.01;100.00
53270;BME280;39159;45.634;9.420;2024-02-16T07:40:20;99370.44;;;6.99;100.00
53270;BME280;39159;45.634;9.420;2024-02-16T07:42:45;99370.19;;;7.00;100.00
53270;BME280;39159;45.634;9.420;2024-02-16T07:45:11;99366.38;;;7.01;100.00
53270;BME280;39159;45.634;9.420;2024-02-16T07:47:37;99365.81;;;7.04;100.00
53270;BME280;39159;45.634;9.420;2024-02-16T07:50:02;99358.47;;;7.10;100.00
53270;BME280;39159;45.634;9.420;2024-02-16T07:52:28;99362.25;;;7.19;100.00
53270;BME280;39159;45.634;9.420;2024-02-16T07:54:53;99361.13;;;7.31;100.00
53270;BME280;39159;45.634;9.420;2024-02-16T07:57:19;99370.59;;;7.48;100.00
53270;BME280;39159;45.634;9.420;2024-02-16T07:59:44;99372.44;;;7.63;100.00
53270;BME280;39159;45.634;9.420;2024-02-16T08:02:09;99371.56;;;7.78;100.00
53270;BME280;39159;45.634;9.420;2024-02-16T08:04:35;99365.72;;;8.00;100.00
53270;BME280;39159;45.634;9.420;2024-02-16T08:07:00;99367.50;;;8.20;100.00
53270;BME280;39159;45.634;9.420;2024-02-16T08:09:26;99373.63;;;8.46;100.00
53270;BME280;39159;45.634;9.420;2024-02-16T08:11:51;99380.81;;;8.66;100.00
53270;BME280;39159;45.634;9.420;2024-02-16T08:14:16;99371.38;;;8.88;100.00
53270;BME280;39159;45.634;9.420;2024-02-16T08:16:42;99376.34;;;9.10;100.00
53270;BME280;39159;45.634;9.420;2024-02-16T08:19:07;99375.50;;;9.39;100.00
53270;BME280;39159;45.634;9.420;2024-02-16T08:21:32;99375.69;;;9.66;100.00
53270;BME280;39159;45.634;9.420;2024-02-16T08:23:57;99382.69;;;9.96;100.00
53270;BME280;39159;45.634;9.420;2024-02-16T08:26:22;99387.94;;;10.12;100.00
53270;BME280;39159;45.634;9.420;2024-02-16T08:28:48;99387.78;;;10.22;100.00
53270;BME280;39159;45.634;9.420;2024-02-16T08:31:17;99383.53;;;10.35;100.00
53270;BME280;39159;45.634;9.420;2024-02-16T08:33:43;99383.69;;;10.44;100.00
53270;BME280;39159;45.634;9.420;2024-02-16T08:36:08;99385.00;;;10.46;100.00
53270;BME280;39159;45.634;9.420;2024-02-16T08:38:33;99388.38;;;10.57;100.00
53270;BME280;39159;45.634;9.420;2024-02-16T08:40:58;99387.25;;;10.77;100.00
53270;BME280;39159;45.634;9.420;2024-02-16T08:43:24;99384.47;;;10.96;100.00
53270;BME280;39159;45.634;9.420;2024-02-16T08:45:50;99383.38;;;10.97;100.00
53270;BME280;39159;45.634;9.420;2024-02-16T08:48:16;99382.28;;;11.12;100.00
53270;BME280;39159;45.634;9.420;2024-02-16T08:50:41;99384.00;;;11.22;100.00
53270;BME280;39159;45.634;9.420;2024-02-16T08:53:06;99382.81;;;11.41;100.00
53270;BME280;39159;45.634;9.420;2024-02-16T08:55:32;99387.59;;;11.50;97.15
53270;BME280;39159;45.634;9.420;2024-02-16T08:57:57;99379.28;;;11.69;97.48
53270;BME280;39159;45.634;9.420;2024-02-16T09:00:23;99388.00;;;11.98;97.47
53270;BME280;39159;45.634;9.420;2024-02-16T09:02:50;99381.19;;;11.96;92.88
53270;BME280;39159;45.634;9.420;2024-02-16T09:05:15;99381.38;;;12.13;93.72
53270;BME280;39159;45.634;9.420;2024-02-16T09:07:41;99381.22;;;12.32;91.46
53270;BME280;39159;45.634;9.420;2024-02-16T09:10:06;99381.25;;;12.55;92.35
53270;BME280;39159;45.634;9.420;2024-02-16T09:12:32;99387.28;;;12.65;89.34
53270;BME280;39159;45.634;9.420;2024-02-16T09:14:58;99393.84;;;12.78;91.17
53270;BME280;39159;45.634;9.420;2024-02-16T09:17:23;99392.94;;;12.69;91.01
53270;BME280;39159;45.634;9.420;2024-02-16T09:19:48;99397.25;;;12.61;91.78
53270;BME280;39159;45.634;9.420;2024-02-16T09:22:13;99393.75;;;12.70;90.17
53270;BME280;39159;45.634;9.420;2024-02-16T09:24:39;99392.75;;;12.65;88.30
53270;BME280;39159;45.634;9.420;2024-02-16T09:27:05;99388.81;;;12.58;89.57
53270;BME280;39159;45.634;9.420;2024-02-16T09:29:31;99391.50;;;12.49;88.83
53270;BME280;39159;45.634;9.420;2024-02-16T09:31:56;99395.19;;;12.90;88.34
53270;BME280;39159;45.634;9.420;2024-02-16T09:34:21;99395.72;;;13.23;88.97
53270;BME280;39159;45.634;9.420;2024-02-16T09:36:46;99399.50;;;13.36;88.30
53270;BME280;39159;45.634;9.420;2024-02-16T09:39:11;99406.72;;;13.72;86.26
53270;BME280;39159;45.634;9.420;2024-02-16T09:41:37;99402.28;;;13.93;81.81
53270;BME280;39159;45.634;9.420;2024-02-16T09:44:06;99402.47;;;13.97;81.43
53270;BME280;39159;45.634;9.420;2024-02-16T09:46:31;99405.88;;;14.11;79.89
53270;BME280;39159;45.634;9.420;2024-02-16T09:49:00;99410.19;;;13.86;78.53
53270;BME280;39159;45.634;9.420;2024-02-16T09:51:25;99407.31;;;14.08;78.79
53270;BME280;39159;45.634;9.420;2024-02-16T09:53:51;99405.09;;;14.37;77.43
53270;BME280;39159;45.634;9.420;2024-02-16T09:56:17;99409.69;;;14.59;76.94
53270;BME280;39159;45.634;9.420;2024-02-16T09:58:42;99412.06;;;14.69;75.42
53270;BME280;39159;45.634;9.420;2024-02-16T10:01:16;99414.69;;;14.74;73.47
53270;BME280;39159;45.634;9.420;2024-02-16T10:03:43;99409.00;;;14.88;74.18
53270;BME280;39159;45.634;9.420;2024-02-16T10:06:08;99405.38;;;15.13;72.20
53270;BME280;39159;45.634;9.420;2024-02-16T10:08:34;99410.84;;;15.31;68.85
53270;BME280;39159;45.634;9.420;2024-02-16T10:11:00;99411.34;;;15.24;68.32
53270;BME280;39159;45.634;9.420;2024-02-16T10:13:25;99409.75;;;15.15;68.50
53270;BME280;39159;45.634;9.420;2024-02-16T10:15:51;99413.09;;;15.29;67.47
53270;BME280;39159;45.634;9.420;2024-02-16T10:18:16;99417.81;;;15.20;69.12
53270;BME280;39159;45.634;9.420;2024-02-16T10:20:44;99417.00;;;15.28;69.08
53270;BME280;39159;45.634;9.420;2024-02-16T10:23:09;99411.53;;;15.10;67.92
53270;BME280;39159;45.634;9.420;2024-02-16T10:25:35;99418.00;;;15.23;69.28
53270;BME280;39159;45.634;9.420;2024-02-16T10:28:05;99409.81;;;15.44;68.58
53270;BME280;39159;45.634;9.420;2024-02-16T10:30:33;99412.50;;;15.62;67.15
53270;BME280;39159;45.634;9.420;2024-02-16T10:32:59;99407.25;;;15.48;65.51
53270;BME280;39159;45.634;9.420;2024-02-16T10:35:24;99412.56;;;15.44;67.87
53270;BME280;39159;45.634;9.420;2024-02-16T10:37:50;99409.25;;;15.68;67.97
53270;BME280;39159;45.634;9.420;2024-02-16T10:40:18;99406.94;;;15.88;64.47
53270;BME280;39159;45.634;9.420;2024-02-16T10:42:45;99408.06;;;15.40;65.64
53270;BME280;39159;45.634;9.420;2024-02-16T10:45:10;99404.25;;;15.62;65.88
53270;BME280;39159;45.634;9.420;2024-02-16T10:47:36;99404.06;;;15.67;64.71
53270;BME280;39159;45.634;9.420;2024-02-16T10:50:02;99399.34;;;15.76;65.21
53270;BME280;39159;45.634;9.420;2024-02-16T10:52:28;99396.81;;;15.62;64.56
53270;BME280;39159;45.634;9.420;2024-02-16T10:54:55;99401.66;;;15.74;66.77
53270;BME280;39159;45.634;9.420;2024-02-16T10:57:23;99402.59;;;15.78;65.08
53270;BME280;39159;45.634;9.420;2024-02-16T10:59:49;99404.19;;;16.09;63.20
53270;BME280;39159;45.634;9.420;2024-02-16T11:02:17;99404.56;;;16.28;63.32
53270;BME280;39159;45.634;9.420;2024-02-16T11:04:45;99394.81;;;16.31;63.26
53270;BME280;39159;45.634;9.420;2024-02-16T11:07:19;99392.00;;;16.40;62.67
53270;BME280;39159;45.634;9.420;2024-02-16T11:09:45;99392.66;;;16.15;65.24
53270;BME280;39159;45.634;9.420;2024-02-16T11:12:13;99386.03;;;16.37;64.84
53270;BME280;39159;45.634;9.420;2024-02-16T11:17:09;99391.31;;;16.85;61.92
53270;BME280;39159;45.634;9.420;2024-02-16T11:19:37;99387.63;;;16.81;58.88
53270;BME280;39159;45.634;9.420;2024-02-16T11:22:05;99381.50;;;16.75;60.38
53270;BME280;39159;45.634;9.420;2024-02-16T11:24:36;99383.97;;;16.89;60.16
53270;BME280;39159;45.634;9.420;2024-02-16T11:27:02;99379.88;;;16.74;57.96
53270;BME280;39159;45.634;9.420;2024-02-16T11:29:32;99376.06;;;16.66;58.74
53270;BME280;39159;45.634;9.420;2024-02-16T11:31:58;99375.19;;;16.11;59.17
53270;BME280;39159;45.634;9.420;2024-02-16T11:34:25;99366.94;;;15.52;61.62
53270;BME280;39159;45.634;9.420;2024-02-16T11:36:57;99369.13;;;15.29;63.00
53270;BME280;39159;45.634;9.420;2024-02-16T11:39:23;99377.19;;;15.34;64.32
53270;BME280;39159;45.634;9.420;2024-02-16T11:42:00;99371.44;;;15.09;63.68
53270;BME280;39159;45.634;9.420;2024-02-16T11:44:27;99369.06;;;14.90;64.51
53270;BME280;39159;45.634;9.420;2024-02-16T11:46:55;99363.75;;;14.77;64.49
53270;BME280;39159;45.634;9.420;2024-02-16T11:49:20;99358.59;;;14.75;65.76
53270;BME280;39159;45.634;9.420;2024-02-16T11:51:46;99361.00;;;14.77;65.86
53270;BME280;39159;45.634;9.420;2024-02-16T11:54:12;99359.88;;;14.60;65.17
53270;BME280;39159;45.634;9.420;2024-02-16T11:56:37;99366.66;;;14.54;66.06
53270;BME280;39159;45.634;9.420;2024-02-16T11:59:04;99365.53;;;14.46;66.88
53270;BME280;39159;45.634;9.420;2024-02-16T12:01:30;99361.97;;;14.46;66.29
53270;BME280;39159;45.634;9.420;2024-02-16T12:03:56;99346.13;;;14.51;65.86
53270;BME280;39159;45.634;9.420;2024-02-16T12:06:21;99357.63;;;14.36;65.92
53270;BME280;39159;45.634;9.420;2024-02-16T12:08:47;99347.28;;;14.24;67.86
53270;BME280;39159;45.634;9.420;2024-02-16T12:11:12;99352.94;;;14.28;66.68
53270;BME280;39159;45.634;9.420;2024-02-16T12:13:37;99349.53;;;14.31;67.39
53270;BME280;39159;45.634;9.420;2024-02-16T12:16:04;99345.19;;;14.30;67.00
53270;BME280;39159;45.634;9.420;2024-02-16T12:18:30;99344.88;;;14.14;67.67
53270;BME280;39159;45.634;9.420;2024-02-16T12:23:24;99342.25;;;14.09;68.08
53270;BME280;39159;45.634;9.420;2024-02-16T12:25:49;99341.16;;;14.27;68.72
53270;BME280;39159;45.634;9.420;2024-02-16T12:28:14;99337.56;;;14.18;68.64
53270;BME280;39159;45.634;9.420;2024-02-16T12:30:40;99330.31;;;14.40;68.09
53270;BME280;39159;45.634;9.420;2024-02-16T12:33:05;99335.66;;;14.27;67.47
53270;BME280;39159;45.634;9.420;2024-02-16T12:35:31;99335.31;;;14.38;68.65
53270;BME280;39159;45.634;9.420;2024-02-16T12:37:57;99335.31;;;14.29;68.24
53270;BME280;39159;45.634;9.420;2024-02-16T12:40:22;99337.56;;;14.27;67.26
53270;BME280;39159;45.634;9.420;2024-02-16T12:42:47;99326.94;;;14.34;66.34
53270;BME280;39159;45.634;9.420;2024-02-16T12:45:13;99328.53;;;14.35;67.21
53270;BME280;39159;45.634;9.420;2024-02-16T12:47:38;99332.75;;;14.33;68.45
53270;BME280;39159;45.634;9.420;2024-02-16T12:50:03;99323.72;;;14.32;68.27
53270;BME280;39159;45.634;9.420;2024-02-16T12:52:29;99323.38;;;14.25;68.45
53270;BME280;39159;45.634;9.420;2024-02-16T12:54:54;99316.75;;;14.17;69.32
53270;BME280;39159;45.634;9.420;2024-02-16T12:57:23;99316.75;;;14.26;69.85